sensor_id;sensor_type;location;lat;lon;timestamp;P1;durP1;ratioP1;P2;durP2;ratioP2
22665;SDS011;11499;49.486;11.104;2022-11-15T00:00:53;6.23;;;5.10;;
22665;SDS011;11499;49.486;11.104;2022-11-15T00:03:23;7.53;;;5.10;;
22665;SDS011;11499;49.486;11.104;2022-11-15T00:05:50;6.13;;;5.23;;
22665;SDS011;11499;49.486;11.104;2022-11-15T00:08:15;6.23;;;5.17;;
22665;SDS011;11499;49.486;11.104;2022-11-15T00:13:25;5.83;;;5.23;;
22665;SDS011;11499;49.486;11.104;2022-11-15T00:15:51;6.00;;;5.10;;
22665;SDS011;11499;49.486;11.104;2022-11-15T00:18:17;7.20;;;5.33;;
22665;SDS011;11499;49.486;11.104;2022-11-15T00:20:43;7.07;;;6.03;;
22665;SDS011;11499;49.486;11.104;2022-11-15T00:23:09;7.47;;;5.47;;
22665;SDS011;11499;49.486;11.104;2022-11-15T00:25:34;7.50;;;5.63;;
22665;SDS011;11499;49.486;11.104;2022-11-15T00:28:00;8.10;;;5.70;;
22665;SDS011;11499;49.486;11.104;2022-11-15T00:30:26;7.30;;;5.87;;
22665;SDS011;11499;49.486;11.104;2022-11-15T00:32:52;6.03;;;4.80;;
22665;SDS011;11499;49.486;11.104;2022-11-15T00:35:18;7.97;;;5.33;;
22665;SDS011;11499;49.486;11.104;2022-11-15T00:40:18;9.10;;;5.67;;
22665;SDS011;11499;49.486;11.104;2022-11-15T00:42:44;7.97;;;5.40;;
22665;SDS011;11499;49.486;11.104;2022-11-15T00:45:10;6.00;;;5.23;;
22665;SDS011;11499;49.486;11.104;2022-11-15T00:47:36;7.50;;;5.60;;
22665;SDS011;11499;49.486;11.104;2022-11-15T00:50:01;7.23;;;5.50;;
22665;SDS011;11499;49.486;11.104;2022-11-15T00:52:27;9.47;;;6.13;;
22665;SDS011;11499;49.486;11.104;2022-11-15T00:54:52;6.80;;;5.73;;
22665;SDS011;11499;49.486;11.104;2022-11-15T00:57:18;7.33;;;5.63;;
22665;SDS011;11499;49.486;11.104;2022-11-15T00:59:43;7.83;;;5.67;;
22665;SDS011;11499;49.486;11.104;2022-11-15T01:02:09;7.90;;;5.50;;
22665;SDS011;11499;49.486;11.104;2022-11-15T01:07:26;6.40;;;5.67;;
22665;SDS011;11499;49.486;11.104;2022-11-15T01:09:51;6.40;;;5.80;;
22665;SDS011;11499;49.486;11.104;2022-11-15T01:12:17;8.00;;;6.00;;
22665;SDS011;11499;49.486;11.104;2022-11-15T01:14:42;7.73;;;6.07;;
22665;SDS011;11499;49.486;11.104;2022-11-15T01:17:08;7.10;;;5.63;;
22665;SDS011;11499;49.486;11.104;2022-11-15T01:19:33;8.63;;;6.07;;
22665;SDS011;11499;49.486;11.104;2022-11-15T01:21:59;10.53;;;6.60;;
22665;SDS011;11499;49.486;11.104;2022-11-15T01:24:24;6.53;;;5.63;;
22665;SDS011;11499;49.486;11.104;2022-11-15T01:26:50;6.47;;;5.67;;
22665;SDS011;11499;49.486;11.104;2022-11-15T01:29:16;7.03;;;6.20;;
22665;SDS011;11499;49.486;11.104;2022-11-15T01:33:34;6.73;;;6.03;;
22665;SDS011;11499;49.486;11.104;2022-11-15T01:36:10;9.33;;;5.87;;
22665;SDS011;11499;49.486;11.104;2022-11-15T01:38:37;8.83;;;5.87;;
22665;SDS011;11499;49.486;11.104;2022-11-15T01:41:03;9.80;;;5.60;;
22665;SDS011;11499;49.486;11.104;2022-11-15T01:43:38;7.73;;;6.47;;
22665;SDS011;11499;49.486;11.104;2022-11-15T01:46:06;8.10;;;6.40;;
22665;SDS011;11499;49.486;11.104;2022-11-15T01:48:51;9.47;;;6.37;;
22665;SDS011;11499;49.486;11.104;2022-11-15T01:51:20;8.27;;;6.27;;
22665;SDS011;11499;49.486;11.104;2022-11-15T01:53:49;6.87;;;5.80;;
22665;SDS011;11499;49.486;11.104;2022-11-15T01:56:21;7.07;;;6.00;;
22665;SDS011;11499;49.486;11.104;2022-11-15T02:01:15;7.53;;;6.00;;
22665;SDS011;11499;49.486;11.104;2022-11-15T02:03:46;9.07;;;6.37;;
22665;SDS011;11499;49.486;11.104;2022-11-15T02:06:16;10.93;;;6.23;;
22665;SDS011;11499;49.486;11.104;2022-11-15T02:08:43;9.90;;;6.50;;
22665;SDS011;11499;49.486;11.104;2022-11-15T02:11:09;7.90;;;6.90;;
22665;SDS011;11499;49.486;11.104;2022-11-15T02:13:35;9.73;;;7.07;;
22665;SDS011;11499;49.486;11.104;2022-11-15T02:16:21;7.60;;;6.63;;
22665;SDS011;11499;49.486;11.104;2022-11-15T02:18:53;9.27;;;6.53;;
22665;SDS011;11499;49.486;11.104;2022-11-15T02:21:29;8.97;;;7.13;;
22665;SDS011;11499;49.486;11.104;2022-11-15T02:28:35;9.83;;;6.33;;
22665;SDS011;11499;49.486;11.104;2022-11-15T02:31:23;8.97;;;6.60;;
22665;SDS011;11499;49.486;11.104;2022-11-15T02:36:43;8.07;;;6.07;;
22665;SDS011;11499;49.486;11.104;2022-11-15T02:39:32;7.03;;;6.20;;
22665;SDS011;11499;49.486;11.104;2022-11-15T02:42:09;10.03;;;7.27;;
22665;SDS011;11499;49.486;11.104;2022-11-15T02:44:58;8.23;;;6.40;;
22665;SDS011;11499;49.486;11.104;2022-11-15T02:47:30;7.57;;;5.97;;
22665;SDS011;11499;49.486;11.104;2022-11-15T02:50:03;6.93;;;6.23;;
22665;SDS011;11499;49.486;11.104;2022-11-15T02:54:30;8.13;;;7.27;;
22665;SDS011;11499;49.486;11.104;2022-11-15T02:57:01;7.47;;;6.60;;
22665;SDS011;11499;49.486;11.104;2022-11-15T03:02:16;7.53;;;6.47;;
22665;SDS011;11499;49.486;11.104;2022-11-15T03:04:53;9.27;;;6.47;;
22665;SDS011;11499;49.486;11.104;2022-11-15T03:12:36;8.43;;;6.77;;
22665;SDS011;11499;49.486;11.104;2022-11-15T03:15:20;10.20;;;6.57;;
22665;SDS011;11499;49.486;11.104;2022-11-15T03:17:53;6.53;;;5.67;;
22665;SDS011;11499;49.486;11.104;2022-11-15T03:22:12;9.30;;;6.80;;
22665;SDS011;11499;49.486;11.104;2022-11-15T03:24:41;10.03;;;7.00;;
22665;SDS011;11499;49.486;11.104;2022-11-15T03:27:10;8.17;;;6.60;;
22665;SDS011;11499;49.486;11.104;2022-11-15T03:29:42;9.13;;;6.83;;
22665;SDS011;11499;49.486;11.104;2022-11-15T03:32:13;8.90;;;6.67;;
22665;SDS011;11499;49.486;11.104;2022-11-15T03:34:44;8.77;;;6.47;;
22665;SDS011;11499;49.486;11.104;2022-11-15T03:37:12;7.37;;;6.27;;
22665;SDS011;11499;49.486;11.104;2022-11-15T03:39:40;8.03;;;6.50;;
22665;SDS011;11499;49.486;11.104;2022-11-15T03:44:56;6.87;;;6.17;;
22665;SDS011;11499;49.486;11.104;2022-11-15T03:50:04;7.90;;;6.73;;
22665;SDS011;11499;49.486;11.104;2022-11-15T03:52:34;6.07;;;5.47;;
22665;SDS011;11499;49.486;11.104;2022-11-15T03:55:00;7.57;;;6.20;;
22665;SDS011;11499;49.486;11.104;2022-11-15T03:57:28;6.33;;;5.53;;
22665;SDS011;11499;49.486;11.104;2022-11-15T03:59:54;7.73;;;5.70;;
22665;SDS011;11499;49.486;11.104;2022-11-15T04:02:19;6.60;;;5.43;;
22665;SDS011;11499;49.486;11.104;2022-11-15T04:04:45;8.17;;;5.70;;
22665;SDS011;11499;49.486;11.104;2022-11-15T04:07:10;7.50;;;5.60;;
22665;SDS011;11499;49.486;11.104;2022-11-15T04:09:36;6.27;;;5.23;;
22665;SDS011;11499;49.486;11.104;2022-11-15T04:12:20;6.63;;;5.77;;
22665;SDS011;11499;49.486;11.104;2022-11-15T04:17:41;5.77;;;5.17;;
22665;SDS011;11499;49.486;11.104;2022-11-15T04:20:12;5.53;;;5.03;;
22665;SDS011;11499;49.486;11.104;2022-11-15T04:22:58;6.23;;;5.10;;
22665;SDS011;11499;49.486;11.104;2022-11-15T04:25:44;7.67;;;5.10;;
22665;SDS011;11499;49.486;11.104;2022-11-15T04:28:10;5.83;;;4.93;;
22665;SDS011;11499;49.486;11.104;2022-11-15T04:30:37;5.53;;;4.93;;
22665;SDS011;11499;49.486;11.104;2022-11-15T04:33:02;5.30;;;4.80;;
22665;SDS011;11499;49.486;11.104;2022-11-15T04:35:28;6.53;;;5.13;;
22665;SDS011;11499;49.486;11.104;2022-11-15T04:37:54;7.03;;;5.00;;
22665;SDS011;11499;49.486;11.104;2022-11-15T04:40:20;5.03;;;4.53;;
22665;SDS011;11499;49.486;11.104;2022-11-15T04:45:17;6.03;;;5.40;;
22665;SDS011;11499;49.486;11.104;2022-11-15T04:47:43;5.87;;;5.23;;
22665;SDS011;11499;49.486;11.104;2022-11-15T04:50:10;6.63;;;5.57;;
22665;SDS011;11499;49.486;11.104;2022-11-15T04:52:38;5.70;;;5.20;;
22665;SDS011;11499;49.486;11.104;2022-11-15T04:55:09;8.93;;;5.83;;
22665;SDS011;11499;49.486;11.104;2022-11-15T04:57:35;7.20;;;5.93;;
22665;SDS011;11499;49.486;11.104;2022-11-15T05:00:02;7.20;;;5.60;;
22665;SDS011;11499;49.486;11.104;2022-11-15T05:02:32;8.07;;;5.97;;
22665;SDS011;11499;49.486;11.104;2022-11-15T05:05:17;6.57;;;5.37;;
22665;SDS011;11499;49.486;11.104;2022-11-15T05:07:42;6.97;;;5.23;;
22665;SDS011;11499;49.486;11.104;2022-11-15T05:12:46;6.37;;;5.77;;
22665;SDS011;11499;49.486;11.104;2022-11-15T05:15:11;6.67;;;5.17;;
22665;SDS011;11499;49.486;11.104;2022-11-15T05:17:37;5.87;;;5.27;;
22665;SDS011;11499;49.486;11.104;2022-11-15T05:20:02;6.37;;;4.87;;
22665;SDS011;11499;49.486;11.104;2022-11-15T05:22:28;6.40;;;5.17;;
22665;SDS011;11499;49.486;11.104;2022-11-15T05:24:53;6.60;;;4.93;;
22665;SDS011;11499;49.486;11.104;2022-11-15T05:27:19;7.83;;;5.33;;
22665;SDS011;11499;49.486;11.104;2022-11-15T05:29:44;6.30;;;4.73;;
22665;SDS011;11499;49.486;11.104;2022-11-15T05:32:10;6.77;;;4.93;;
22665;SDS011;11499;49.486;11.104;2022-11-15T05:34:36;5.57;;;4.60;;
22665;SDS011;11499;49.486;11.104;2022-11-15T05:38:42;5.67;;;4.77;;
22665;SDS011;11499;49.486;11.104;2022-11-15T05:41:08;5.10;;;4.60;;
22665;SDS011;11499;49.486;11.104;2022-11-15T05:43:35;6.30;;;4.83;;
22665;SDS011;11499;49.486;11.104;2022-11-15T05:46:04;5.70;;;4.57;;
22665;SDS011;11499;49.486;11.104;2022-11-15T05:48:30;6.70;;;4.50;;
22665;SDS011;11499;49.486;11.104;2022-11-15T05:50:57;5.20;;;4.57;;
22665;SDS011;11499;49.486;11.104;2022-11-15T05:53:23;5.57;;;4.90;;
22665;SDS011;11499;49.486;11.104;2022-11-15T05:55:50;6.40;;;5.03;;
22665;SDS011;11499;49.486;11.104;2022-11-15T05:58:16;5.97;;;4.97;;
22665;SDS011;11499;49.486;11.104;2022-11-15T06:00:43;6.33;;;4.77;;
22665;SDS011;11499;49.486;11.104;2022-11-15T06:03:09;5.33;;;4.40;;
22665;SDS011;11499;49.486;11.104;2022-11-15T06:08:26;7.13;;;4.80;;
22665;SDS011;11499;49.486;11.104;2022-11-15T06:10:52;6.10;;;4.67;;
22665;SDS011;11499;49.486;11.104;2022-11-15T06:13:18;6.33;;;4.93;;
22665;SDS011;11499;49.486;11.104;2022-11-15T06:15:43;6.07;;;5.20;;
22665;SDS011;11499;49.486;11.104;2022-11-15T06:18:09;6.73;;;4.73;;
22665;SDS011;11499;49.486;11.104;2022-11-15T06:20:35;5.53;;;5.00;;
22665;SDS011;11499;49.486;11.104;2022-11-15T06:23:01;4.97;;;4.43;;
22665;SDS011;11499;49.486;11.104;2022-11-15T06:25:28;6.23;;;4.77;;
22665;SDS011;11499;49.486;11.104;2022-11-15T06:27:55;6.03;;;4.63;;
22665;SDS011;11499;49.486;11.104;2022-11-15T06:33:22;6.23;;;5.23;;
22665;SDS011;11499;49.486;11.104;2022-11-15T06:35:48;5.00;;;4.50;;
22665;SDS011;11499;49.486;11.104;2022-11-15T06:38:13;5.93;;;5.27;;
22665;SDS011;11499;49.486;11.104;2022-11-15T06:40:39;4.97;;;4.47;;
22665;SDS011;11499;49.486;11.104;2022-11-15T06:43:05;5.80;;;5.00;;
22665;SDS011;11499;49.486;11.104;2022-11-15T06:45:31;5.30;;;4.40;;
22665;SDS011;11499;49.486;11.104;2022-11-15T06:47:57;5.27;;;4.60;;
22665;SDS011;11499;49.486;11.104;2022-11-15T06:50:23;4.70;;;4.30;;
22665;SDS011;11499;49.486;11.104;2022-11-15T06:52:49;4.73;;;4.23;;
22665;SDS011;11499;49.486;11.104;2022-11-15T06:55:14;4.60;;;4.03;;
22665;SDS011;11499;49.486;11.104;2022-11-15T07:00:20;5.43;;;4.50;;
22665;SDS011;11499;49.486;11.104;2022-11-15T07:02:47;5.27;;;4.47;;
22665;SDS011;11499;49.486;11.104;2022-11-15T07:05:13;5.83;;;4.43;;
22665;SDS011;11499;49.486;11.104;2022-11-15T07:07:39;5.33;;;4.10;;
22665;SDS011;11499;49.486;11.104;2022-11-15T07:10:05;4.50;;;4.10;;
22665;SDS011;11499;49.486;11.104;2022-11-15T07:12:31;4.77;;;4.27;;
22665;SDS011;11499;49.486;11.104;2022-11-15T07:14:56;4.43;;;3.83;;
22665;SDS011;11499;49.486;11.104;2022-11-15T07:17:22;5.10;;;4.23;;
22665;SDS011;11499;49.486;11.104;2022-11-15T07:19:47;5.63;;;4.50;;
22665;SDS011;11499;49.486;11.104;2022-11-15T07:22:13;5.17;;;3.70;;
22665;SDS011;11499;49.486;11.104;2022-11-15T07:26:42;4.40;;;4.00;;
22665;SDS011;11499;49.486;11.104;2022-11-15T07:29:07;4.40;;;4.00;;
22665;SDS011;11499;49.486;11.104;2022-11-15T07:31:33;4.53;;;4.13;;
22665;SDS011;11499;49.486;11.104;2022-11-15T07:33:58;5.73;;;4.47;;
22665;SDS011;11499;49.486;11.104;2022-11-15T07:36:24;4.97;;;4.40;;
22665;SDS011;11499;49.486;11.104;2022-11-15T07:38:49;4.70;;;4.17;;
22665;SDS011;11499;49.486;11.104;2022-11-15T07:41:15;5.10;;;4.40;;
22665;SDS011;11499;49.486;11.104;2022-11-15T07:43:40;4.30;;;3.90;;
22665;SDS011;11499;49.486;11.104;2022-11-15T07:46:06;4.93;;;3.97;;
22665;SDS011;11499;49.486;11.104;2022-11-15T07:48:36;4.13;;;3.60;;
22665;SDS011;11499;49.486;11.104;2022-11-15T07:54:05;4.80;;;3.93;;
22665;SDS011;11499;49.486;11.104;2022-11-15T07:56:30;5.40;;;3.87;;
22665;SDS011;11499;49.486;11.104;2022-11-15T07:58:56;4.00;;;3.70;;
22665;SDS011;11499;49.486;11.104;2022-11-15T08:01:22;4.33;;;3.93;;
22665;SDS011;11499;49.486;11.104;2022-11-15T08:03:47;5.13;;;3.70;;
22665;SDS011;11499;49.486;11.104;2022-11-15T08:06:13;4.30;;;3.60;;
22665;SDS011;11499;49.486;11.104;2022-11-15T08:08:38;4.50;;;4.07;;
22665;SDS011;11499;49.486;11.104;2022-11-15T08:11:04;4.20;;;3.70;;
22665;SDS011;11499;49.486;11.104;2022-11-15T08:13:29;4.90;;;4.00;;
22665;SDS011;11499;49.486;11.104;2022-11-15T08:15:59;6.57;;;3.63;;
22665;SDS011;11499;49.486;11.104;2022-11-15T08:21:58;4.80;;;4.10;;
22665;SDS011;11499;49.486;11.104;2022-11-15T08:24:24;4.87;;;4.30;;
22665;SDS011;11499;49.486;11.104;2022-11-15T08:26:49;4.67;;;3.90;;
22665;SDS011;11499;49.486;11.104;2022-11-15T08:29:15;4.47;;;4.03;;
22665;SDS011;11499;49.486;11.104;2022-11-15T08:31:40;5.63;;;4.07;;
22665;SDS011;11499;49.486;11.104;2022-11-15T08:34:06;5.90;;;4.20;;
22665;SDS011;11499;49.486;11.104;2022-11-15T08:36:32;5.23;;;4.50;;
22665;SDS011;11499;49.486;11.104;2022-11-15T08:38:57;5.00;;;4.00;;
22665;SDS011;11499;49.486;11.104;2022-11-15T08:41:27;4.90;;;4.33;;
22665;SDS011;11499;49.486;11.104;2022-11-15T08:43:55;7.47;;;5.00;;
22665;SDS011;11499;49.486;11.104;2022-11-15T08:48:54;7.63;;;4.40;;
22665;SDS011;11499;49.486;11.104;2022-11-15T08:51:20;6.40;;;3.93;;
22665;SDS011;11499;49.486;11.104;2022-11-15T08:53:45;7.07;;;4.27;;
22665;SDS011;11499;49.486;11.104;2022-11-15T08:56:11;6.90;;;3.80;;
22665;SDS011;11499;49.486;11.104;2022-11-15T08:58:38;5.10;;;4.20;;
22665;SDS011;11499;49.486;11.104;2022-11-15T09:01:04;4.67;;;3.97;;
22665;SDS011;11499;49.486;11.104;2022-11-15T09:03:30;7.10;;;3.90;;
22665;SDS011;11499;49.486;11.104;2022-11-15T09:05:56;4.43;;;3.93;;
22665;SDS011;11499;49.486;11.104;2022-11-15T09:08:23;7.90;;;4.37;;
22665;SDS011;11499;49.486;11.104;2022-11-15T09:10:49;5.50;;;4.10;;
22665;SDS011;11499;49.486;11.104;2022-11-15T09:14:52;10.27;;;4.37;;
22665;SDS011;11499;49.486;11.104;2022-11-15T09:17:17;4.70;;;4.00;;
22665;SDS011;11499;49.486;11.104;2022-11-15T09:19:43;5.43;;;3.97;;
22665;SDS011;11499;49.486;11.104;2022-11-15T09:22:08;4.27;;;3.87;;
22665;SDS011;11499;49.486;11.104;2022-11-15T09:24:34;4.57;;;3.90;;
22665;SDS011;11499;49.486;11.104;2022-11-15T09:27:00;5.90;;;4.13;;
22665;SDS011;11499;49.486;11.104;2022-11-15T09:29:26;5.87;;;4.03;;
22665;SDS011;11499;49.486;11.104;2022-11-15T09:31:53;5.70;;;3.60;;
22665;SDS011;11499;49.486;11.104;2022-11-15T09:34:18;4.10;;;3.70;;
22665;SDS011;11499;49.486;11.104;2022-11-15T09:36:44;3.80;;;3.00;;
22665;SDS011;11499;49.486;11.104;2022-11-15T09:42:03;4.87;;;3.23;;
22665;SDS011;11499;49.486;11.104;2022-11-15T09:50:42;4.83;;;3.43;;
22665;SDS011;11499;49.486;11.104;2022-11-15T09:53:22;5.43;;;3.33;;
22665;SDS011;11499;49.486;11.104;2022-11-15T09:56:02;3.17;;;2.87;;
22665;SDS011;11499;49.486;11.104;2022-11-15T10:04:09;3.50;;;3.10;;
22665;SDS011;11499;49.486;11.104;2022-11-15T10:08:53;4.80;;;3.67;;
22665;SDS011;11499;49.486;11.104;2022-11-15T10:11:31;3.93;;;3.10;;
22665;SDS011;11499;49.486;11.104;2022-11-15T10:14:00;4.03;;;3.03;;
22665;SDS011;11499;49.486;11.104;2022-11-15T10:16:44;3.37;;;2.93;;
22665;SDS011;11499;49.486;11.104;2022-11-15T10:19:34;5.57;;;3.23;;
22665;SDS011;11499;49.486;11.104;2022-11-15T10:22:06;3.80;;;2.63;;
22665;SDS011;11499;49.486;11.104;2022-11-15T10:24:41;3.40;;;2.40;;
22665;SDS011;11499;49.486;11.104;2022-11-15T10:27:16;3.37;;;2.50;;
22665;SDS011;11499;49.486;11.104;2022-11-15T10:29:44;3.57;;;2.53;;
22665;SDS011;11499;49.486;11.104;2022-11-15T10:32:12;3.80;;;2.77;;
22665;SDS011;11499;49.486;11.104;2022-11-15T10:41:19;4.93;;;2.30;;
22665;SDS011;11499;49.486;11.104;2022-11-15T10:46:40;2.30;;;2.00;;
22665;SDS011;11499;49.486;11.104;2022-11-15T10:54:40;2.80;;;1.90;;
22665;SDS011;11499;49.486;11.104;2022-11-15T10:57:13;3.60;;;2.23;;
22665;SDS011;11499;49.486;11.104;2022-11-15T11:05:28;2.47;;;2.20;;
22665;SDS011;11499;49.486;11.104;2022-11-15T11:07:55;3.30;;;1.90;;
22665;SDS011;11499;49.486;11.104;2022-11-15T11:10:23;4.57;;;3.47;;
22665;SDS011;11499;49.486;11.104;2022-11-15T11:12:49;3.27;;;1.80;;
22665;SDS011;11499;49.486;11.104;2022-11-15T11:15:15;3.00;;;1.70;;
22665;SDS011;11499;49.486;11.104;2022-11-15T11:17:57;2.53;;;2.03;;
22665;SDS011;11499;49.486;11.104;2022-11-15T11:20:38;3.27;;;1.90;;
22665;SDS011;11499;49.486;11.104;2022-11-15T11:34:00;3.13;;;2.27;;
22665;SDS011;11499;49.486;11.104;2022-11-15T11:36:44;2.53;;;1.90;;
22665;SDS011;11499;49.486;11.104;2022-11-15T11:39:23;6.28;;;2.13;;
22665;SDS011;11499;49.486;11.104;2022-11-15T11:41:53;3.75;;;2.08;;
22665;SDS011;11499;49.486;11.104;2022-11-15T11:47:10;3.78;;;2.40;;
22665;SDS011;11499;49.486;11.104;2022-11-15T11:49:55;4.80;;;2.30;;
22665;SDS011;11499;49.486;11.104;2022-11-15T11:55:18;3.15;;;1.88;;
22665;SDS011;11499;49.486;11.104;2022-11-15T12:00:52;2.60;;;1.90;;
22665;SDS011;11499;49.486;11.104;2022-11-15T12:06:06;3.30;;;2.22;;
22665;SDS011;11499;49.486;11.104;2022-11-15T12:08:59;5.88;;;2.20;;
22665;SDS011;11499;49.486;11.104;2022-11-15T12:11:47;3.17;;;1.90;;
22665;SDS011;11499;49.486;11.104;2022-11-15T12:14:40;2.33;;;1.98;;
22665;SDS011;11499;49.486;11.104;2022-11-15T12:17:10;3.35;;;1.98;;
22665;SDS011;11499;49.486;11.104;2022-11-15T12:21:54;2.95;;;2.10;;
22665;SDS011;11499;49.486;11.104;2022-11-15T12:24:26;4.05;;;1.80;;
22665;SDS011;11499;49.486;11.104;2022-11-15T12:27:03;5.07;;;2.30;;
22665;SDS011;11499;49.486;11.104;2022-11-15T12:29:38;3.42;;;2.20;;
22665;SDS011;11499;49.486;11.104;2022-11-15T12:32:41;3.35;;;1.80;;
22665;SDS011;11499;49.486;11.104;2022-11-15T12:35:00;2.85;;;2.05;;
22665;SDS011;11499;49.486;11.104;2022-11-15T12:43:36;3.72;;;2.00;;
22665;SDS011;11499;49.486;11.104;2022-11-15T12:51:00;3.95;;;2.08;;
22665;SDS011;11499;49.486;11.104;2022-11-15T13:06:53;5.05;;;2.22;;
22665;SDS011;11499;49.486;11.104;2022-11-15T13:14:44;5.13;;;2.60;;
22665;SDS011;11499;49.486;11.104;2022-11-15T13:19:49;3.50;;;2.22;;
22665;SDS011;11499;49.486;11.104;2022-11-15T13:22:20;2.55;;;2.15;;
22665;SDS011;11499;49.486;11.104;2022-11-15T13:25:04;4.63;;;2.30;;
22665;SDS011;11499;49.486;11.104;2022-11-15T13:27:44;4.22;;;2.65;;
22665;SDS011;11499;49.486;11.104;2022-11-15T13:30:22;3.55;;;2.60;;
22665;SDS011;11499;49.486;11.104;2022-11-15T13:32:52;5.07;;;2.67;;
22665;SDS011;11499;49.486;11.104;2022-11-15T13:35:19;4.75;;;2.60;;
22665;SDS011;11499;49.486;11.104;2022-11-15T13:40:34;4.07;;;2.42;;
22665;SDS011;11499;49.486;11.104;2022-11-15T13:43:17;4.97;;;2.80;;
22665;SDS011;11499;49.486;11.104;2022-11-15T13:48:43;4.15;;;2.78;;
22665;SDS011;11499;49.486;11.104;2022-11-15T13:51:15;4.68;;;2.83;;
22665;SDS011;11499;49.486;11.104;2022-11-15T13:53:52;6.93;;;2.75;;
22665;SDS011;11499;49.486;11.104;2022-11-15T13:56:23;4.50;;;2.90;;
22665;SDS011;11499;49.486;11.104;2022-11-15T13:58:50;4.78;;;2.97;;
22665;SDS011;11499;49.486;11.104;2022-11-15T14:01:18;4.72;;;3.20;;
22665;SDS011;11499;49.486;11.104;2022-11-15T14:06:30;5.20;;;3.35;;
22665;SDS011;11499;49.486;11.104;2022-11-15T14:09:00;4.50;;;3.10;;
22665;SDS011;11499;49.486;11.104;2022-11-15T14:11:52;5.78;;;3.38;;
22665;SDS011;11499;49.486;11.104;2022-11-15T14:14:22;5.28;;;4.03;;
22665;SDS011;11499;49.486;11.104;2022-11-15T14:16:51;9.40;;;5.60;;
22665;SDS011;11499;49.486;11.104;2022-11-15T14:25:05;4.32;;;3.13;;
22665;SDS011;11499;49.486;11.104;2022-11-15T14:27:41;4.13;;;3.10;;
22665;SDS011;11499;49.486;11.104;2022-11-15T14:30:16;5.05;;;2.75;;
22665;SDS011;11499;49.486;11.104;2022-11-15T14:34:23;8.30;;;3.08;;
22665;SDS011;11499;49.486;11.104;2022-11-15T14:36:48;4.00;;;3.05;;
22665;SDS011;11499;49.486;11.104;2022-11-15T14:39:14;3.77;;;2.90;;
22665;SDS011;11499;49.486;11.104;2022-11-15T14:41:39;5.53;;;3.00;;
22665;SDS011;11499;49.486;11.104;2022-11-15T14:44:05;5.97;;;2.97;;
22665;SDS011;11499;49.486;11.104;2022-11-15T14:46:31;5.13;;;3.00;;
22665;SDS011;11499;49.486;11.104;2022-11-15T14:48:57;8.47;;;2.80;;
22665;SDS011;11499;49.486;11.104;2022-11-15T14:51:22;4.53;;;2.87;;
22665;SDS011;11499;49.486;11.104;2022-11-15T14:53:48;4.83;;;2.50;;
22665;SDS011;11499;49.486;11.104;2022-11-15T14:56:14;6.57;;;3.03;;
22665;SDS011;11499;49.486;11.104;2022-11-15T15:01:17;5.77;;;3.47;;
22665;SDS011;11499;49.486;11.104;2022-11-15T15:03:45;8.60;;;6.30;;
22665;SDS011;11499;49.486;11.104;2022-11-15T15:06:11;7.77;;;4.00;;
22665;SDS011;11499;49.486;11.104;2022-11-15T15:08:38;6.13;;;3.50;;
22665;SDS011;11499;49.486;11.104;2022-11-15T15:11:24;6.37;;;3.40;;
22665;SDS011;11499;49.486;11.104;2022-11-15T15:13:54;4.90;;;4.10;;
22665;SDS011;11499;49.486;11.104;2022-11-15T15:16:22;8.03;;;4.83;;
22665;SDS011;11499;49.486;11.104;2022-11-15T15:18:49;9.03;;;4.73;;
22665;SDS011;11499;49.486;11.104;2022-11-15T15:21:36;8.47;;;3.50;;
22665;SDS011;11499;49.486;11.104;2022-11-15T15:27:05;4.37;;;3.30;;
22665;SDS011;11499;49.486;11.104;2022-11-15T15:29:30;7.17;;;5.17;;
22665;SDS011;11499;49.486;11.104;2022-11-15T15:31:56;10.17;;;7.07;;
22665;SDS011;11499;49.486;11.104;2022-11-15T15:34:21;12.43;;;8.90;;
22665;SDS011;11499;49.486;11.104;2022-11-15T15:36:47;13.60;;;8.80;;
22665;SDS011;11499;49.486;11.104;2022-11-15T15:39:12;9.83;;;7.77;;
22665;SDS011;11499;49.486;11.104;2022-11-15T15:41:38;8.93;;;6.67;;
22665;SDS011;11499;49.486;11.104;2022-11-15T15:44:03;7.00;;;5.40;;
22665;SDS011;11499;49.486;11.104;2022-11-15T15:46:29;8.83;;;5.60;;
22665;SDS011;11499;49.486;11.104;2022-11-15T15:48:54;8.20;;;5.70;;
22665;SDS011;11499;49.486;11.104;2022-11-15T15:54:05;9.00;;;5.60;;
22665;SDS011;11499;49.486;11.104;2022-11-15T15:56:30;9.10;;;5.20;;
22665;SDS011;11499;49.486;11.104;2022-11-15T15:58:56;9.37;;;4.70;;
22665;SDS011;11499;49.486;11.104;2022-11-15T16:01:21;11.20;;;6.00;;
22665;SDS011;11499;49.486;11.104;2022-11-15T16:03:47;11.60;;;7.03;;
22665;SDS011;11499;49.486;11.104;2022-11-15T16:06:25;13.90;;;10.13;;
22665;SDS011;11499;49.486;11.104;2022-11-15T16:09:00;17.80;;;11.80;;
22665;SDS011;11499;49.486;11.104;2022-11-15T16:11:26;13.30;;;9.97;;
22665;SDS011;11499;49.486;11.104;2022-11-15T16:13:51;12.30;;;9.10;;
22665;SDS011;11499;49.486;11.104;2022-11-15T16:16:17;18.67;;;10.90;;
22665;SDS011;11499;49.486;11.104;2022-11-15T16:21:24;10.17;;;7.43;;
22665;SDS011;11499;49.486;11.104;2022-11-15T16:23:49;6.87;;;5.77;;
22665;SDS011;11499;49.486;11.104;2022-11-15T16:26:20;7.03;;;5.20;;
22665;SDS011;11499;49.486;11.104;2022-11-15T16:28:48;11.00;;;7.47;;
22665;SDS011;11499;49.486;11.104;2022-11-15T16:31:14;12.90;;;8.23;;
22665;SDS011;11499;49.486;11.104;2022-11-15T16:33:43;9.97;;;8.00;;
22665;SDS011;11499;49.486;11.104;2022-11-15T16:36:22;9.63;;;7.17;;
22665;SDS011;11499;49.486;11.104;2022-11-15T16:38:49;8.50;;;6.30;;
22665;SDS011;11499;49.486;11.104;2022-11-15T16:41:15;11.30;;;7.50;;
22665;SDS011;11499;49.486;11.104;2022-11-15T16:43:43;8.70;;;6.77;;
22665;SDS011;11499;49.486;11.104;2022-11-15T16:47:45;10.57;;;7.13;;
22665;SDS011;11499;49.486;11.104;2022-11-15T16:50:16;9.70;;;6.67;;
22665;SDS011;11499;49.486;11.104;2022-11-15T16:52:48;7.70;;;6.57;;
22665;SDS011;11499;49.486;11.104;2022-11-15T16:55:15;12.97;;;7.57;;
22665;SDS011;11499;49.486;11.104;2022-11-15T16:57:40;12.63;;;9.23;;
22665;SDS011;11499;49.486;11.104;2022-11-15T17:00:07;10.70;;;8.23;;
22665;SDS011;11499;49.486;11.104;2022-11-15T17:02:35;12.00;;;7.43;;
22665;SDS011;11499;49.486;11.104;2022-11-15T17:05:01;9.63;;;7.47;;
22665;SDS011;11499;49.486;11.104;2022-11-15T17:07:26;12.43;;;7.70;;
22665;SDS011;11499;49.486;11.104;2022-11-15T17:09:52;9.57;;;7.00;;
22665;SDS011;11499;49.486;11.104;2022-11-15T17:14:50;9.97;;;6.43;;
22665;SDS011;11499;49.486;11.104;2022-11-15T17:17:16;10.97;;;7.13;;
22665;SDS011;11499;49.486;11.104;2022-11-15T17:19:41;9.23;;;7.27;;
22665;SDS011;11499;49.486;11.104;2022-11-15T17:22:07;11.27;;;7.90;;
22665;SDS011;11499;49.486;11.104;2022-11-15T17:24:32;13.60;;;8.10;;
22665;SDS011;11499;49.486;11.104;2022-11-15T17:26:58;9.20;;;6.87;;
22665;SDS011;11499;49.486;11.104;2022-11-15T17:29:23;6.20;;;5.37;;
22665;SDS011;11499;49.486;11.104;2022-11-15T17:31:49;7.50;;;5.97;;
22665;SDS011;11499;49.486;11.104;2022-11-15T17:34:14;6.27;;;4.30;;
22665;SDS011;11499;49.486;11.104;2022-11-15T17:36:40;5.97;;;4.80;;
22665;SDS011;11499;49.486;11.104;2022-11-15T17:41:54;5.07;;;4.40;;
22665;SDS011;11499;49.486;11.104;2022-11-15T17:44:20;4.83;;;4.33;;
22665;SDS011;11499;49.486;11.104;2022-11-15T17:46:45;6.67;;;4.37;;
22665;SDS011;11499;49.486;11.104;2022-11-15T17:49:11;5.40;;;4.40;;
22665;SDS011;11499;49.486;11.104;2022-11-15T17:51:36;6.57;;;4.50;;
22665;SDS011;11499;49.486;11.104;2022-11-15T17:54:02;5.40;;;4.37;;
22665;SDS011;11499;49.486;11.104;2022-11-15T17:56:28;6.93;;;4.43;;
22665;SDS011;11499;49.486;11.104;2022-11-15T17:58:58;8.63;;;5.60;;